Time;durP1;ratioP1;P1;durP2;ratioP2;P2;SDS_P1;SDS_P2;PMS_P1;PMS_P2;Temp;Humidity;BMP_temperature;BMP_pressure;BME280_temperature;BME280_humidity;BME280_pressure;Samples;Min_cycle;Max_cycle;Signal;HPM_P1;HPM_P2
2023/05/29 00:00:42;;;;;;;0.95;0.85;;;;;;;26.46;36.15;102218.91;5010256;28;96713;-73
2023/05/29 00:03:09;;;;;;;0.95;0.82;;;;;;;26.46;36.05;102213.41;5009868;28;97721;-73
2023/05/29 00:05:36;;;;;;;1.35;1.00;;;;;;;26.45;36.26;102212.56;5009810;28;97158;-73
2023/05/29 00:08:03;;;;;;;1.02;0.90;;;;;;;26.46;35.95;102216.16;5009708;28;97226;-73
2023/05/29 00:10:31;;;;;;;1.33;1.00;;;;;;;26.45;35.93;102214.44;5010691;28;97223;-73
2023/05/29 00:12:58;;;;;;;1.13;0.80;;;;;;;26.44;36.08;102219.09;5009439;28;99074;-73
2023/05/29 00:15:24;;;;;;;1.38;1.00;;;;;;;26.44;36.15;102224.63;5008067;28;97267;-73
2023/05/29 00:17:51;;;;;;;1.13;0.93;;;;;;;26.44;36.13;102221.00;5006201;28;98620;-73
2023/05/29 00:20:18;;;;;;;1.10;0.95;;;;;;;26.43;36.20;102222.03;5008207;28;97117;-73
2023/05/29 00:22:45;;;;;;;1.15;0.90;;;;;;;26.43;36.02;102230.31;5008441;28;96819;-73
2023/05/29 00:25:12;;;;;;;1.00;0.90;;;;;;;26.42;36.02;102232.19;5009285;28;97228;-73
2023/05/29 00:27:38;;;;;;;0.80;0.80;;;;;;;26.42;35.97;102226.69;5010157;28;97115;-73
2023/05/29 00:30:05;;;;;;;1.10;1.00;;;;;;;26.43;36.03;102233.06;5024273;28;96749;-73
2023/05/29 00:32:33;;;;;;;1.40;0.90;;;;;;;26.42;35.86;102232.19;5014525;28;99951;-73
2023/05/29 00:34:59;;;;;;;1.67;1.02;;;;;;;26.41;36.45;102236.00;5012792;28;97381;-73
2023/05/29 00:37:26;;;;;;;1.15;0.80;;;;;;;26.41;36.11;102236.00;5015556;28;96776;-73
2023/05/29 00:39:52;;;;;;;1.63;1.00;;;;;;;26.42;36.99;102242.34;5016856;28;97181;-73
2023/05/29 00:42:19;;;;;;;1.13;1.02;;;;;;;26.41;36.22;102237.88;5014806;28;100146;-73
2023/05/29 00:44:46;;;;;;;1.25;0.95;;;;;;;26.40;36.00;102242.53;5016990;28;97419;-73
2023/05/29 00:47:13;;;;;;;1.65;1.00;;;;;;;26.40;36.20;102245.28;4999481;28;97797;-73
2023/05/29 00:49:39;;;;;;;1.08;0.98;;;;;;;26.41;36.35;102240.66;5006450;28;97079;-73
2023/05/29 00:52:08;;;;;;;1.20;1.00;;;;;;;26.40;36.13;102248.06;5012490;28;97104;-73
2023/05/29 00:54:36;;;;;;;1.45;1.10;;;;;;;26.40;36.18;102249.94;5011163;28;100281;-73
2023/05/29 00:57:04;;;;;;;1.00;0.90;;;;;;;26.40;36.22;102253.56;5011110;28;96833;-73
2023/05/29 00:59:33;;;;;;;1.42;0.93;;;;;;;26.40;36.29;102255.44;5011976;28;97012;-73
2023/05/29 01:02:02;;;;;;;1.15;0.98;;;;;;;26.39;36.13;102268.38;5012744;28;97236;-73
2023/05/29 01:04:33;;;;;;;0.80;0.70;;;;;;;26.39;36.10;102270.25;5012590;28;96595;-73
2023/05/29 01:07:03;;;;;;;1.08;0.70;;;;;;;26.38;36.28;102272.16;4999622;28;97040;-73
2023/05/29 01:09:31;;;;;;;1.20;0.90;;;;;;;26.36;36.22;102265.13;5011387;28;96848;-73
2023/05/29 01:12:02;;;;;;;1.40;0.90;;;;;;;26.37;36.12;102253.91;5012752;28;97667;-73
2023/05/29 01:14:43;;;;;;;1.33;0.98;;;;;;;26.37;36.18;102264.06;5010204;28;99851;-73
2023/05/29 01:17:24;;;;;;;1.02;0.80;;;;;;;26.37;36.30;102264.06;5012640;28;96974;-73
2023/05/29 01:20:06;;;;;;;1.10;0.85;;;;;;;26.36;36.36;102270.63;5022127;28;96991;-73
2023/05/29 01:22:54;;;;;;;1.10;1.00;;;;;;;26.35;36.32;102271.66;5009341;28;97979;-73
2023/05/29 01:25:34;;;;;;;1.17;0.90;;;;;;;26.34;36.12;102272.69;5012474;28;97180;-73
2023/05/29 01:28:04;;;;;;;0.90;0.70;;;;;;;26.34;36.33;102272.69;5009489;28;96710;-73
2023/05/29 01:30:32;;;;;;;1.20;1.00;;;;;;;26.33;36.26;102271.84;5011250;28;97241;-73
2023/05/29 01:32:59;;;;;;;1.00;0.82;;;;;;;26.32;36.25;102271.97;5011620;28;96832;-73
2023/05/29 01:35:26;;;;;;;1.20;0.85;;;;;;;26.32;36.14;102269.22;5011711;28;96725;-73
2023/05/29 01:37:54;;;;;;;1.00;0.90;;;;;;;26.32;36.31;102272.84;5005655;28;96806;-73
2023/05/29 01:40:22;;;;;;;0.95;0.82;;;;;;;26.32;36.14;102277.50;5004768;28;97165;-73
2023/05/29 01:42:49;;;;;;;1.00;0.90;;;;;;;26.31;36.36;102273.88;5009067;28;99196;-73
2023/05/29 01:45:16;;;;;;;1.00;0.88;;;;;;;26.31;36.27;102273.88;5010164;28;100449;-73
2023/05/29 01:47:46;;;;;;;0.98;0.80;;;;;;;26.31;36.31;102275.78;4994871;28;96815;-73
2023/05/29 01:50:17;;;;;;;1.63;1.08;;;;;;;26.30;36.25;102266.66;5025090;28;96927;-73
2023/05/29 01:52:44;;;;;;;0.90;0.80;;;;;;;26.29;36.19;102267.69;5017546;28;97204;-73
2023/05/29 01:55:11;;;;;;;0.95;0.80;;;;;;;26.30;36.10;102263.91;5012460;28;96732;-73
2023/05/29 01:57:38;;;;;;;0.90;0.80;;;;;;;26.29;36.23;102260.28;5011342;28;96818;-73
2023/05/29 02:00:08;;;;;;;1.00;0.80;;;;;;;26.29;36.22;102259.44;5010470;28;97312;-73
2023/05/29 02:02:41;;;;;;;1.38;0.80;;;;;;;26.28;36.11;102266.81;5007155;28;96801;-73
2023/05/29 02:05:10;;;;;;;0.80;0.80;;;;;;;26.28;36.15;102261.31;5011320;28;97182;-73
2023/05/29 02:07:38;;;;;;;1.25;0.80;;;;;;;26.28;36.14;102260.47;5009980;28;96788;-73
2023/05/29 02:10:05;;;;;;;0.80;0.70;;;;;;;26.27;36.25;102267.88;5010570;28;97294;-73
2023/05/29 02:12:32;;;;;;;1.10;0.82;;;;;;;26.27;36.34;102261.50;5011570;28;97716;-73
2023/05/29 02:14:58;;;;;;;1.10;0.80;;;;;;;26.27;36.57;102261.50;5010147;28;96777;-73
2023/05/29 02:17:26;;;;;;;1.10;0.90;;;;;;;26.26;35.92;102259.78;5009932;28;96670;-73
2023/05/29 02:19:53;;;;;;;0.90;0.80;;;;;;;26.27;36.02;102264.25;5010241;28;97016;-73
2023/05/29 02:22:19;;;;;;;1.00;0.80;;;;;;;26.26;36.64;102260.63;5008958;28;100423;-73
2023/05/29 02:24:46;;;;;;;1.10;0.90;;;;;;;26.26;36.32;102268.03;5010390;28;97630;-73
2023/05/29 02:27:13;;;;;;;1.15;0.90;;;;;;;26.26;36.25;102268.03;5010463;28;96884;-73
2023/05/29 02:29:41;;;;;;;0.75;0.57;;;;;;;26.25;36.16;102272.69;5009395;28;97226;-73
2023/05/29 02:32:07;;;;;;;1.20;0.80;;;;;;;26.25;36.33;102277.34;5010439;28;97435;-73
2023/05/29 02:34:34;;;;;;;1.10;0.90;;;;;;;26.25;36.35;102278.19;5009911;28;97290;-73
2023/05/29 02:37:01;;;;;;;1.00;0.90;;;;;;;26.25;36.45;102274.59;4992710;28;97045;-73
2023/05/29 02:39:27;;;;;;;0.98;0.80;;;;;;;26.25;36.34;102282.84;5010885;28;97053;-73
2023/05/29 02:41:54;;;;;;;0.65;0.60;;;;;;;26.25;36.28;102282.84;5002186;28;98583;-73
2023/05/29 02:44:21;;;;;;;1.20;0.70;;;;;;;26.24;36.30;102289.41;5008705;28;97426;-73
2023/05/29 02:46:50;;;;;;;1.20;0.80;;;;;;;26.24;36.11;102297.66;5007931;28;97050;-73
2023/05/29 02:49:19;;;;;;;0.90;0.80;;;;;;;26.23;36.18;102294.03;4992855;28;96749;-73
2023/05/29 02:51:45;;;;;;;1.05;0.85;;;;;;;26.23;36.47;102294.03;5010153;28;96691;-73
2023/05/29 02:54:12;;;;;;;1.20;0.90;;;;;;;26.23;36.29;102304.19;5007824;28;99582;-73
2023/05/29 02:56:40;;;;;;;1.10;0.90;;;;;;;26.22;36.46;102296.97;5008878;28;96796;-73
2023/05/29 02:59:06;;;;;;;1.20;0.80;;;;;;;26.22;36.48;102283.19;5002993;28;96930;-73
2023/05/29 03:01:34;;;;;;;1.23;0.82;;;;;;;26.22;36.06;102291.47;5009643;28;96947;-73
2023/05/29 03:04:01;;;;;;;0.80;0.70;;;;;;;26.21;36.01;102292.50;5008137;28;97446;-73
2023/05/29 03:06:29;;;;;;;0.90;0.73;;;;;;;26.21;36.34;102287.84;5008313;28;96893;-73
2023/05/29 03:08:56;;;;;;;1.10;1.00;;;;;;;26.22;36.40;102291.47;4990206;28;96899;-73
2023/05/29 03:11:24;;;;;;;0.80;0.80;;;;;;;26.20;36.46;102286.13;5015951;28;99709;-73
2023/05/29 03:13:51;;;;;;;0.98;0.77;;;;;;;26.20;36.26;102285.28;4991447;28;100705;-73
2023/05/29 03:16:18;;;;;;;0.80;0.70;;;;;;;26.20;36.32;102286.13;5008420;28;97142;-73
2023/05/29 03:18:45;;;;;;;1.02;0.73;;;;;;;26.19;36.19;102281.66;4991568;28;97232;-73
2023/05/29 03:21:13;;;;;;;0.93;0.80;;;;;;;26.20;36.61;102282.53;5007525;28;96820;-73
2023/05/29 03:23:40;;;;;;;1.20;0.80;;;;;;;26.19;36.24;102283.56;5006416;28;98387;-73
2023/05/29 03:26:07;;;;;;;1.98;0.70;;;;;;;26.19;36.25;102286.31;5007002;28;96893;-73
2023/05/29 03:28:35;;;;;;;1.20;0.80;;;;;;;26.18;36.27;102284.59;4988616;28;97502;-73
2023/05/29 03:31:04;;;;;;;1.00;0.80;;;;;;;26.17;36.42;102289.25;4990656;28;100314;-73
2023/05/29 03:33:31;;;;;;;0.80;0.77;;;;;;;26.18;36.15;102298.38;4998496;28;96996;-73
2023/05/29 03:36:09;;;;;;;0.73;0.70;;;;;;;26.17;36.27;102310.41;4998530;28;96966;-73
2023/05/29 03:38:35;;;;;;;1.40;1.02;;;;;;;26.17;36.25;102300.25;5009286;28;96937;-73
2023/05/29 03:41:02;;;;;;;0.98;0.88;;;;;;;26.17;36.20;102293.88;5007476;28;96723;-73
2023/05/29 03:43:29;;;;;;;0.77;0.60;;;;;;;26.16;36.21;102295.78;5007624;28;98654;-73
2023/05/29 03:45:56;;;;;;;1.40;0.80;;;;;;;26.17;36.41;102307.66;4989116;28;97203;-73
2023/05/29 03:48:23;;;;;;;0.98;0.80;;;;;;;26.16;36.49;102303.19;5007895;28;96829;-73
2023/05/29 03:50:49;;;;;;;0.88;0.75;;;;;;;26.15;36.22;102302.31;4985857;28;99306;-73
2023/05/29 03:53:23;;;;;;;1.10;0.80;;;;;;;26.16;36.24;102308.69;5007427;28;99839;-73
2023/05/29 03:55:49;;;;;;;1.00;0.85;;;;;;;26.15;36.32;102306.97;4991513;28;96821;-73
2023/05/29 03:58:16;;;;;;;1.00;0.75;;;;;;;26.15;36.25;102318.00;5009237;28;96985;-73
2023/05/29 04:00:43;;;;;;;0.95;0.80;;;;;;;26.14;36.43;102311.63;5001530;28;97679;-73
2023/05/29 04:03:11;;;;;;;0.77;0.70;;;;;;;26.15;36.31;102318.00;5007524;28;98070;-73
2023/05/29 04:05:38;;;;;;;0.90;0.80;;;;;;;26.14;36.47;102316.28;5006734;28;97206;-73
2023/05/29 04:08:05;;;;;;;1.60;1.10;;;;;;;26.15;36.45;102323.50;5007592;28;98591;-73
2023/05/29 04:10:41;;;;;;;1.30;0.90;;;;;;;26.13;36.51;102326.44;5000397;28;96887;-73
2023/05/29 04:13:08;;;;;;;0.80;0.77;;;;;;;26.13;36.00;102325.56;5009013;28;97005;-73
2023/05/29 04:15:34;;;;;;;0.77;0.70;;;;;;;26.13;36.37;102333.84;5007311;28;97389;-73
2023/05/29 04:18:02;;;;;;;1.10;0.90;;;;;;;26.13;36.38;102328.31;5008028;28;96868;-73
2023/05/29 04:20:30;;;;;;;0.80;0.60;;;;;;;26.12;36.33;102332.97;5007533;28;99400;-73
2023/05/29 04:22:56;;;;;;;1.13;0.80;;;;;;;26.12;36.09;102329.34;5006130;28;96708;-73
2023/05/29 04:25:23;;;;;;;2.75;0.90;;;;;;;26.12;36.26;102323.84;5008186;28;96652;-73
2023/05/29 04:27:50;;;;;;;0.70;0.60;;;;;;;26.11;36.32;102331.25;5007706;28;96683;-73
2023/05/29 04:30:19;;;;;;;1.05;0.90;;;;;;;26.11;36.34;102335.91;5021768;28;100674;-73
2023/05/29 04:32:48;;;;;;;1.48;0.80;;;;;;;26.11;36.36;102341.41;5001614;28;98815;-73
2023/05/29 04:35:15;;;;;;;1.45;0.98;;;;;;;26.10;36.18;102340.53;4990174;28;97108;-73
2023/05/29 04:37:52;;;;;;;0.93;0.80;;;;;;;26.10;36.34;102337.78;5003765;28;97237;-73
2023/05/29 04:40:20;;;;;;;0.70;0.65;;;;;;;26.10;36.16;102340.53;4990027;28;99364;-73
2023/05/29 04:42:47;;;;;;;0.95;0.85;;;;;;;26.10;36.36;102342.44;5007741;28;98458;-73
2023/05/29 04:45:16;;;;;;;0.98;0.70;;;;;;;26.10;36.46;102345.19;5006686;28;97386;-73
2023/05/29 04:47:43;;;;;;;0.88;0.70;;;;;;;26.10;36.25;102343.31;5007132;28;96870;-73
2023/05/29 04:50:12;;;;;;;0.80;0.70;;;;;;;26.10;36.35;102347.94;5005018;28;100167;-73
2023/05/29 04:52:41;;;;;;;1.23;0.80;;;;;;;26.09;36.23;102343.47;5006499;28;96788;-73
2023/05/29 04:55:10;;;;;;;1.27;0.90;;;;;;;26.09;36.07;102343.47;5006827;28;98828;-73
2023/05/29 04:57:38;;;;;;;0.90;0.73;;;;;;;26.10;36.47;102345.19;5004484;28;97150;-73
2023/05/29 05:00:13;;;;;;;1.00;0.90;;;;;;;26.09;36.37;102336.06;5006248;28;100251;-73
2023/05/29 05:02:43;;;;;;;;;;;;;;;26.03;36.49;102339.53;4986847;28;99406;-73
2023/05/29 05:05:11;;;;;;;0.90;0.80;;;;;;;26.03;36.42;102341.41;5006649;28;96901;-73
2023/05/29 05:07:38;;;;;;;0.73;0.60;;;;;;;26.05;36.30;102333.84;4990719;28;96965;-73
2023/05/29 05:10:06;;;;;;;0.80;0.75;;;;;;;26.06;36.17;102335.56;4990134;28;99257;-74
2023/05/29 05:12:33;;;;;;;0.90;0.75;;;;;;;26.06;36.23;102347.44;5005411;28;99470;-73
2023/05/29 05:15:01;;;;;;;1.45;0.80;;;;;;;26.05;36.42;102348.47;5006246;28;97106;-73
2023/05/29 05:17:29;;;;;;;0.75;0.60;;;;;;;26.06;36.28;102357.59;5008992;28;96988;-73
2023/05/29 05:19:55;;;;;;;0.85;0.70;;;;;;;26.06;36.38;102366.72;5010190;28;96854;-73
2023/05/29 05:22:22;;;;;;;1.35;0.90;;;;;;;26.06;36.35;102368.59;5009776;28;97193;-73
2023/05/29 05:24:51;;;;;;;1.15;0.82;;;;;;;26.07;36.31;102371.19;5009540;28;96925;-73
2023/05/29 05:27:18;;;;;;;0.90;0.73;;;;;;;26.06;36.31;102372.22;5007724;28;96914;-73
2023/05/29 05:29:45;;;;;;;0.98;0.82;;;;;;;26.07;36.14;102378.59;5010267;28;98727;-73
2023/05/29 05:32:11;;;;;;;1.02;0.80;;;;;;;26.07;36.08;102378.59;5001559;28;96980;-73
2023/05/29 05:34:39;;;;;;;1.27;0.90;;;;;;;26.07;36.30;102375.84;5009858;28;96828;-73
2023/05/29 05:37:07;;;;;;;0.88;0.77;;;;;;;26.07;36.54;102373.06;5010098;28;97267;-73
2023/05/29 05:39:34;;;;;;;1.05;0.70;;;;;;;26.07;36.36;102373.06;5019889;28;98941;-73
2023/05/29 05:42:01;;;;;;;0.70;0.60;;;;;;;26.06;36.46;102366.72;5006640;28;99816;-73
2023/05/29 05:44:46;;;;;;;;;;;;;;;26.01;36.30;102368.22;5009184;28;99027;-73
2023/05/29 05:47:13;;;;;;;1.13;0.70;;;;;;;26.00;36.31;102367.38;5026389;28;97009;-73
2023/05/29 05:49:41;;;;;;;0.82;0.70;;;;;;;26.03;36.19;102371.69;5010004;28;99809;-73
2023/05/29 05:52:07;;;;;;;1.38;0.98;;;;;;;26.03;36.49;102372.56;5010605;28;99620;-73
2023/05/29 05:54:34;;;;;;;0.55;0.50;;;;;;;26.04;36.48;102365.16;5010697;28;96767;-73
2023/05/29 05:57:02;;;;;;;1.05;0.80;;;;;;;26.04;36.31;102370.66;5010080;28;97078;-73
2023/05/29 05:59:30;;;;;;;0.70;0.63;;;;;;;26.05;36.23;102366.88;5009324;28;98941;-73
2023/05/29 06:01:58;;;;;;;1.05;0.60;;;;;;;26.05;36.39;102366.88;5006181;28;97631;-73
2023/05/29 06:04:24;;;;;;;0.73;0.52;;;;;;;26.06;36.00;102363.97;4986878;28;97983;-73
2023/05/29 06:06:51;;;;;;;0.73;0.60;;;;;;;26.05;36.33;102370.50;5009305;28;96928;-73
2023/05/29 06:09:19;;;;;;;1.20;0.88;;;;;;;26.06;36.35;102371.34;5005032;28;98938;-73
2023/05/29 06:11:48;;;;;;;1.25;0.65;;;;;;;26.06;36.12;102371.34;5002514;28;96683;-73
2023/05/29 06:14:15;;;;;;;1.17;0.80;;;;;;;26.06;36.42;102379.63;5008855;28;96947;-73
2023/05/29 06:16:43;;;;;;;0.90;0.70;;;;;;;26.06;36.22;102379.63;5009474;28;97116;-73
2023/05/29 06:19:10;;;;;;;1.45;0.73;;;;;;;26.06;36.20;102391.50;5010677;28;97231;-73
2023/05/29 06:21:51;;;;;;;0.82;0.60;;;;;;;26.05;36.19;102381.50;4998572;28;98024;-73
2023/05/29 06:24:17;;;;;;;1.02;0.70;;;;;;;26.05;36.28;102389.78;5008055;28;96921;-73
2023/05/29 06:26:44;;;;;;;1.30;0.73;;;;;;;26.06;36.11;102396.13;4992885;28;97483;-73
2023/05/29 06:29:12;;;;;;;1.30;0.80;;;;;;;26.06;36.11;102396.13;5007639;28;97710;-73
2023/05/29 06:31:39;;;;;;;0.95;0.70;;;;;;;26.06;36.17;102390.63;5001270;28;99778;-73
2023/05/29 06:34:07;;;;;;;0.90;0.77;;;;;;;26.06;36.24;102398.88;4992571;28;96842;-73
2023/05/29 06:36:34;;;;;;;0.80;0.73;;;;;;;26.06;36.18;102396.13;5009247;28;96879;-73
2023/05/29 06:39:01;;;;;;;0.73;0.70;;;;;;;26.06;36.12;102396.13;5009334;28;100216;-72
2023/05/29 06:41:27;;;;;;;0.80;0.80;;;;;;;26.06;36.18;102393.38;5002741;28;99603;-72
2023/05/29 06:43:54;;;;;;;1.00;0.70;;;;;;;26.07;36.36;102395.09;5008303;28;97385;-72
2023/05/29 06:46:21;;;;;;;0.82;0.63;;;;;;;26.06;36.22;102398.88;5007028;28;97123;-72
2023/05/29 06:48:48;;;;;;;1.10;0.70;;;;;;;26.07;36.20;102395.09;5002955;28;101867;-72
2023/05/29 06:51:15;;;;;;;0.70;0.60;;;;;;;26.06;36.16;102399.75;5009273;28;97198;-72
2023/05/29 06:54:02;;;;;;;0.85;0.70;;;;;;;26.05;36.25;102399.94;5006612;28;97177;-72
2023/05/29 06:56:30;;;;;;;0.80;0.60;;;;;;;26.05;36.36;102395.28;5008480;28;96991;-72
2023/05/29 06:58:56;;;;;;;0.90;0.70;;;;;;;26.06;36.19;102396.13;5006821;28;96961;-73
2023/05/29 07:01:23;;;;;;;0.70;0.63;;;;;;;26.06;36.41;102398.88;5005329;28;98943;-72
2023/05/29 07:03:57;;;;;;;1.42;0.90;;;;;;;26.05;36.15;102397.16;5000837;28;96880;-72
2023/05/29 07:06:25;;;;;;;1.20;0.68;;;;;;;26.05;36.18;102395.28;5007806;28;98148;-72
2023/05/29 07:08:52;;;;;;;1.27;0.80;;;;;;;26.06;36.07;102402.50;5009804;28;97906;-72
2023/05/29 07:11:18;;;;;;;1.00;0.80;;;;;;;26.06;36.01;102398.88;5008241;28;96701;-72
2023/05/29 07:13:46;;;;;;;1.23;0.70;;;;;;;26.07;36.19;102404.22;5008984;28;97177;-72
2023/05/29 07:16:25;;;;;;;0.85;0.57;;;;;;;26.07;36.18;102398.72;4992856;28;97136;-72
2023/05/29 07:18:57;;;;;;;1.05;0.70;;;;;;;26.06;35.99;102408.00;5007335;28;96908;-72
2023/05/29 07:21:25;;;;;;;0.80;0.60;;;;;;;26.07;36.23;102406.97;5007840;28;100391;-73
2023/05/29 07:23:51;;;;;;;1.10;0.80;;;;;;;26.07;36.24;102403.38;5006913;28;96884;-72
2023/05/29 07:26:18;;;;;;;1.30;0.60;;;;;;;26.07;36.29;102403.38;5007051;28;96818;-73
2023/05/29 07:28:45;;;;;;;0.77;0.60;;;;;;;26.07;36.28;102406.13;5000047;28;99884;-73
2023/05/29 07:31:11;;;;;;;0.82;0.50;;;;;;;26.07;36.22;102414.38;5007938;28;99132;-73
2023/05/29 07:33:41;;;;;;;1.08;0.70;;;;;;;26.08;36.07;102410.59;4991534;28;96979;-73
2023/05/29 07:36:07;;;;;;;0.80;0.55;;;;;;;26.08;36.17;102410.59;5005666;28;97210;-73
2023/05/29 07:38:34;;;;;;;1.77;0.70;;;;;;;26.07;36.13;102409.72;5001440;28;96837;-73
2023/05/29 07:41:00;;;;;;;0.93;0.70;;;;;;;26.07;36.22;102415.25;5006723;28;99622;-73
2023/05/29 07:43:30;;;;;;;0.85;0.60;;;;;;;26.07;36.01;102414.38;5007302;28;96921;-76
2023/05/29 07:46:03;;;;;;;1.08;0.70;;;;;;;26.08;36.34;102410.59;5006057;28;96851;-76
2023/05/29 07:48:30;;;;;;;1.10;0.70;;;;;;;26.09;36.06;102418.69;5006958;28;99512;-76
2023/05/29 07:50:58;;;;;;;0.90;0.60;;;;;;;26.08;36.18;102416.97;5007079;28;99333;-74
2023/05/29 07:53:27;;;;;;;1.10;0.70;;;;;;;26.08;36.41;102418.84;5006997;28;97009;-75
2023/05/29 07:55:54;;;;;;;0.80;0.70;;;;;;;26.09;36.11;102420.56;5007613;28;97008;-75
2023/05/29 07:58:21;;;;;;;0.55;0.40;;;;;;;26.08;36.23;102422.47;4992396;28;100501;-75
2023/05/29 08:00:49;;;;;;;1.40;0.60;;;;;;;26.08;35.92;102422.47;5000991;28;98888;-75
2023/05/29 08:03:15;;;;;;;1.83;0.57;;;;;;;26.08;36.16;102421.59;5007573;28;97245;-75
2023/05/29 08:06:01;;;;;;;1.02;0.63;;;;;;;26.07;36.11;102426.25;5006145;28;97300;-75
2023/05/29 08:08:28;;;;;;;0.60;0.52;;;;;;;26.08;36.15;102433.47;5006560;28;99755;-76
2023/05/29 08:10:55;;;;;;;1.05;0.88;;;;;;;26.08;36.16;102427.97;4990043;28;100119;-75
2023/05/29 08:13:22;;;;;;;0.90;0.60;;;;;;;26.08;36.22;102427.97;5007220;28;96804;-76
2023/05/29 08:15:49;;;;;;;1.20;0.60;;;;;;;26.08;36.00;102433.47;5005347;28;96773;-75
2023/05/29 08:18:15;;;;;;;1.10;0.70;;;;;;;26.09;36.18;102434.34;5008628;28;98134;-75
2023/05/29 08:20:42;;;;;;;0.85;0.68;;;;;;;26.09;36.07;102435.19;5009025;28;96616;-75
2023/05/29 08:23:09;;;;;;;0.90;0.68;;;;;;;26.09;36.19;102437.09;5007901;28;96814;-75
2023/05/29 08:25:36;;;;;;;0.60;0.50;;;;;;;26.09;36.13;102428.84;5009833;28;97062;-75
2023/05/29 08:28:02;;;;;;;1.52;0.80;;;;;;;26.09;35.96;102428.84;5007307;28;96931;-75
2023/05/29 08:30:29;;;;;;;1.00;0.60;;;;;;;26.10;36.07;102433.31;5007788;28;99172;-75
2023/05/29 08:32:55;;;;;;;2.60;1.00;;;;;;;26.10;36.16;102430.56;5006779;28;96806;-75
2023/05/29 08:35:22;;;;;;;0.73;0.63;;;;;;;26.09;36.06;102429.69;5008806;28;96874;-75
2023/05/29 08:37:49;;;;;;;0.85;0.60;;;;;;;26.11;36.05;102432.28;5009872;28;96685;-75
2023/05/29 08:40:15;;;;;;;1.20;0.63;;;;;;;26.10;35.92;102433.31;5012317;28;98000;-75
2023/05/29 08:42:47;;;;;;;1.35;0.70;;;;;;;26.11;35.99;102438.63;5014081;28;96782;-75
2023/05/29 08:45:15;;;;;;;0.70;0.55;;;;;;;26.10;36.00;102442.44;5010038;28;96920;-75
2023/05/29 08:47:43;;;;;;;0.70;0.60;;;;;;;26.11;36.29;102446.03;5011974;28;97301;-75
2023/05/29 08:50:15;;;;;;;0.77;0.60;;;;;;;26.11;36.09;102437.78;5011129;28;96858;-75
2023/05/29 08:52:41;;;;;;;1.10;0.60;;;;;;;26.12;36.28;102439.50;5009801;28;97180;-75
2023/05/29 08:55:08;;;;;;;1.15;0.60;;;;;;;26.13;35.75;102446.72;5007228;28;96771;-77
2023/05/29 08:57:37;;;;;;;0.73;0.52;;;;;;;26.13;36.09;102438.47;5010253;28;97080;-75
2023/05/29 09:00:12;;;;;;;0.70;0.55;;;;;;;26.13;35.99;102435.72;4989834;28;99908;-75
2023/05/29 09:02:45;;;;;;;1.13;0.82;;;;;;;26.12;35.98;102445.88;5012390;28;97027;-76
2023/05/29 09:05:13;;;;;;;1.10;0.80;;;;;;;26.12;35.94;102445.00;5012144;28;96992;-76
2023/05/29 09:07:40;;;;;;;0.95;0.70;;;;;;;26.12;35.96;102445.00;5010048;28;98857;-75
2023/05/29 09:10:09;;;;;;;0.90;0.63;;;;;;;26.13;35.97;102447.59;5011758;28;97280;-75
2023/05/29 09:12:36;;;;;;;0.85;0.70;;;;;;;26.13;36.02;102452.25;5012212;28;97125;-75
2023/05/29 09:15:07;;;;;;;0.95;0.60;;;;;;;26.12;35.98;102451.38;5011080;28;96881;-76
2023/05/29 09:17:34;;;;;;;0.60;0.60;;;;;;;26.13;35.85;102455.00;5012211;28;97665;-75
2023/05/29 09:20:04;;;;;;;0.90;0.63;;;;;;;26.13;36.14;102453.09;5010828;28;97211;-75
2023/05/29 09:22:31;;;;;;;1.45;0.80;;;;;;;26.13;36.02;102455.84;5011694;28;97152;-75
2023/05/29 09:24:59;;;;;;;0.60;0.50;;;;;;;26.13;35.73;102447.59;5010560;28;97291;-75
2023/05/29 09:27:26;;;;;;;0.90;0.55;;;;;;;26.14;35.89;102457.56;5011864;28;97878;-75
2023/05/29 09:29:52;;;;;;;1.85;0.65;;;;;;;26.14;35.87;102448.44;4987210;28;97594;-76
2023/05/29 09:32:19;;;;;;;0.80;0.60;;;;;;;26.15;36.03;102458.44;5006376;28;96657;-76
2023/05/29 09:34:46;;;;;;;1.02;0.75;;;;;;;26.15;35.92;102447.41;5009973;28;97142;-75
2023/05/29 09:37:13;;;;;;;0.80;0.57;;;;;;;26.14;36.08;102452.06;5010488;28;99641;-74
2023/05/29 09:39:41;;;;;;;1.08;0.60;;;;;;;26.14;36.02;102443.81;5010804;28;98702;-74
2023/05/29 09:42:11;;;;;;;0.75;0.68;;;;;;;26.16;35.83;102446.38;5010124;28;96931;-74
2023/05/29 09:44:40;;;;;;;0.77;0.60;;;;;;;26.15;36.02;102447.41;5011067;28;96870;-75
2023/05/29 09:47:07;;;;;;;0.80;0.50;;;;;;;26.15;35.95;102444.66;5009342;28;97061;-75
2023/05/29 09:49:34;;;;;;;0.65;0.57;;;;;;;26.16;36.05;102449.13;5010125;28;99017;-75
2023/05/29 09:52:01;;;;;;;0.93;0.60;;;;;;;26.16;36.10;102450.00;5011138;28;97183;-75
2023/05/29 09:54:32;;;;;;;0.80;0.65;;;;;;;26.16;36.02;102443.63;5010520;28;96993;-75
2023/05/29 09:57:01;;;;;;;0.93;0.70;;;;;;;26.17;35.80;102439.84;5002455;28;96988;-75
2023/05/29 09:59:27;;;;;;;0.70;0.57;;;;;;;26.16;35.84;102444.50;5011150;28;97860;-75
2023/05/29 10:02:07;;;;;;;0.70;0.63;;;;;;;26.18;36.20;102433.31;5010089;28;96871;-75
2023/05/29 10:04:33;;;;;;;1.10;0.70;;;;;;;26.17;36.08;102445.34;5009792;28;96799;-75
2023/05/29 10:07:08;;;;;;;0.80;0.60;;;;;;;26.18;35.86;102436.06;5009635;28;98200;-75
2023/05/29 10:09:45;;;;;;;1.05;0.70;;;;;;;26.16;35.88;102438.97;5011356;28;97429;-75
2023/05/29 10:12:13;;;;;;;0.90;0.55;;;;;;;26.16;36.24;102436.22;5011331;28;96734;-75
2023/05/29 10:14:41;;;;;;;1.23;0.63;;;;;;;26.16;35.80;102435.38;5000844;28;96973;-75
2023/05/29 10:17:12;;;;;;;0.63;0.50;;;;;;;26.18;35.90;102430.53;5003023;28;97833;-75
2023/05/29 10:19:39;;;;;;;1.02;0.60;;;;;;;26.18;35.79;102433.31;5009984;28;97222;-75
2023/05/29 10:22:07;;;;;;;0.82;0.63;;;;;;;26.17;35.71;102429.69;5011368;28;96847;-75
2023/05/29 10:24:36;;;;;;;0.98;0.60;;;;;;;26.18;35.89;102425.03;5010056;28;97017;-75
2023/05/29 10:27:04;;;;;;;0.90;0.80;;;;;;;26.18;35.95;102422.28;5011066;28;99114;-75
2023/05/29 10:29:50;;;;;;;0.75;0.45;;;;;;;26.20;35.93;102434.00;5011654;28;97017;-75
2023/05/29 10:32:22;;;;;;;0.60;0.50;;;;;;;26.19;36.05;102429.50;5011315;28;96775;-75
2023/05/29 10:34:58;;;;;;;0.80;0.73;;;;;;;26.19;36.08;102435.88;4998825;28;98203;-76
2023/05/29 10:37:52;;;;;;;0.85;0.55;;;;;;;26.19;35.85;102430.38;5009249;28;98055;-75
2023/05/29 10:40:23;;;;;;;0.73;0.63;;;;;;;26.18;35.92;102428.66;5010453;28;96829;-76
2023/05/29 10:43:00;;;;;;;1.23;0.60;;;;;;;26.19;35.97;102430.38;5009625;28;96829;-76
2023/05/29 10:45:32;;;;;;;0.70;0.50;;;;;;;26.19;35.88;102429.50;5010779;28;96942;-75
2023/05/29 10:48:08;;;;;;;0.90;0.73;;;;;;;26.20;35.95;102431.25;5010824;28;98246;-75
2023/05/29 10:50:40;;;;;;;0.88;0.65;;;;;;;26.20;35.94;102425.72;5009757;28;99683;-75
2023/05/29 10:53:10;;;;;;;0.50;0.40;;;;;;;26.20;35.85;102434.84;5010431;28;96800;-75
2023/05/29 10:55:37;;;;;;;0.90;0.80;;;;;;;26.20;35.88;102423.84;5010196;28;96813;-75
2023/05/29 10:58:21;;;;;;;0.52;0.52;;;;;;;26.22;35.87;102426.41;5010545;28;97535;-75
2023/05/29 11:00:48;;;;;;;0.80;0.50;;;;;;;26.22;35.82;102434.69;5009644;28;98211;-75
2023/05/29 11:03:18;;;;;;;1.10;0.50;;;;;;;26.22;35.79;102426.41;5009687;28;97252;-76
2023/05/29 11:06:00;;;;;;;0.70;0.60;;;;;;;26.23;35.67;102425.38;5009765;28;97383;-75
2023/05/29 11:08:42;;;;;;;0.82;0.70;;;;;;;26.22;35.78;102430.03;5007849;28;98052;-76
2023/05/29 11:11:11;;;;;;;0.70;0.50;;;;;;;26.22;35.94;102421.75;5010508;28;97031;-76
2023/05/29 11:13:40;;;;;;;0.80;0.68;;;;;;;26.22;35.76;102413.50;5010141;28;96870;-76
2023/05/29 11:16:35;;;;;;;1.02;0.60;;;;;;;26.23;36.02;102423.47;5009231;28;96765;-75
2023/05/29 11:19:07;;;;;;;0.60;0.40;;;;;;;26.23;35.78;102415.22;5008775;28;98505;-75
2023/05/29 11:22:16;;;;;;;0.70;0.60;;;;;;;26.24;35.77;102424.34;5009076;28;96878;-75
2023/05/29 11:24:44;;;;;;;0.85;0.60;;;;;;;26.22;35.92;102423.66;5007339;28;98036;-75
2023/05/29 11:27:11;;;;;;;0.77;0.50;;;;;;;26.23;35.83;102420.72;5010776;28;97003;-75
2023/05/29 11:29:38;;;;;;;0.85;0.60;;;;;;;26.23;35.77;102409.72;5007880;28;97924;-76
2023/05/29 11:32:07;;;;;;;0.82;0.70;;;;;;;26.25;35.75;102423.31;5008972;28;96907;-76